MUC weather

Munich Airport
Munich, Bavaria, Germany

Public forecast

Using degrees Celsius for public forecast. Weather courtesy of forecast.io.

METAR (pilot weather report)

Retrieved 2019/04/23 09:20 UTC (13 minutes ago):

EDDM 230920Z 09012KT CAVOK 16/06 Q1001 NOSIG

TAF (pilot weather forecast)

Retrieved 2019/04/23 06:27 UTC (3 hours ago):

TAF EDDM 230500Z 2306/2412 08008KT CAVOK BECMG 2307/2309 10013KT BECMG 2318/2320 10008KT BECMG 2322/2324 VRB03KT BECMG 2407/2409 15005KT